< < Back
Terminal Aerodrome Forecast


Current Version              Previous Versions:   1  2  3  4  5  6  7  8  9  

Terminal Aerodrome Forecast

177
FTUS42 KJAX 302325
TAFJAX
TAF
KJAX 302325Z 3100/3124 07008KT P6SM VCSH SCT025 BKN040 OVC060
      TEMPO 3100/3104 3SM SHRA BR BKN025
     FM310400 05004KT P6SM VCSH BKN015
     FM311200 23006KT P6SM VCSH BKN015
      TEMPO 3113/3117 SCT015 BKN025
     FM311700 24010KT P6SM VCSH SCT015 BKN025=



Latest METAR

368
SAUS80 KWBC 310600 CCA
MTRJAX
METAR KJAX 310556Z 32003KT 10SM FEW014 BKN025 24/24 A2989 RMK AO2 SLP123
60009 T02440244 10250 20239 56008


USA.gov is the U.S. government's official web portal to all federal, state and local government web resources and services.